createdAt,value
2019-02-14T00:00:07.726Z,2.45
2019-02-14T00:02:33.776Z,2.35
2019-02-14T00:04:59.594Z,2.36
2019-02-14T00:07:25.388Z,2.35
2019-02-14T00:09:51.271Z,2.33
2019-02-14T00:12:17.327Z,2.50
2019-02-14T00:14:43.142Z,2.50
2019-02-14T00:17:08.945Z,2.43
2019-02-14T00:19:34.806Z,2.42
2019-02-14T00:22:00.623Z,2.30
2019-02-14T00:24:29.238Z,2.32
2019-02-14T00:26:55.112Z,2.11
2019-02-14T00:29:20.921Z,2.07
2019-02-14T00:31:47.008Z,2.16
2019-02-14T00:34:13.136Z,2.23
2019-02-14T00:36:39.329Z,2.18
2019-02-14T00:39:05.577Z,2.09
2019-02-14T00:41:31.653Z,2.06
2019-02-14T00:43:57.484Z,1.97
2019-02-14T00:46:23.385Z,2.05
2019-02-14T00:48:49.601Z,2.10
2019-02-14T00:51:15.412Z,2.11
2019-02-14T00:53:41.238Z,2.13
2019-02-14T00:56:07.347Z,2.07
2019-02-14T00:58:36.095Z,1.88
2019-02-14T01:01:02.006Z,1.96
2019-02-14T01:03:30.730Z,1.97
2019-02-14T01:05:56.637Z,1.98
2019-02-14T01:08:27.252Z,1.89
2019-02-14T01:10:53.060Z,1.90
2019-02-14T01:13:22.224Z,1.78
2019-02-14T01:15:49.166Z,1.78
2019-02-14T01:18:14.943Z,1.76
2019-02-14T01:20:40.768Z,1.73
2019-02-14T01:23:06.665Z,1.78
2019-02-14T01:25:32.504Z,1.78
2019-02-14T01:27:58.292Z,1.86
2019-02-14T01:30:27.145Z,1.82
2019-02-14T01:32:53.230Z,1.86
2019-02-14T01:35:22.246Z,1.89
2019-02-14T01:37:48.301Z,1.94
2019-02-14T01:40:16.879Z,1.91
2019-02-14T01:42:42.976Z,1.84
2019-02-14T01:45:21.815Z,1.88
2019-02-14T01:47:49.576Z,1.76
2019-02-14T01:50:18.228Z,1.74
2019-02-14T01:52:44.040Z,1.64
2019-02-14T01:55:09.863Z,1.69
2019-02-14T01:57:35.704Z,1.76
2019-02-14T02:00:01.718Z,1.71
2019-02-14T02:02:27.843Z,1.74
2019-02-14T02:04:53.671Z,1.60
2019-02-14T02:07:19.907Z,1.73
2019-02-14T02:09:45.777Z,1.73
2019-02-14T02:12:12.105Z,1.72
2019-02-14T02:14:38.224Z,1.70
2019-02-14T02:17:04.053Z,1.66
2019-02-14T02:19:30.180Z,1.61
2019-02-14T02:21:56.011Z,1.53
2019-02-14T02:24:22.114Z,1.51
2019-02-14T02:26:52.609Z,1.53
2019-02-14T02:29:18.480Z,1.54
2019-02-14T02:31:44.299Z,1.51
2019-02-14T02:34:10.085Z,1.37
2019-02-14T02:36:35.917Z,1.38
2019-02-14T02:39:05.994Z,1.37
2019-02-14T02:41:31.824Z,1.35
2019-02-14T02:43:57.723Z,1.42
2019-02-14T02:46:23.539Z,1.42
2019-02-14T02:48:52.298Z,1.50
2019-02-14T02:51:18.408Z,1.51
2019-02-14T02:53:46.720Z,1.44
2019-02-14T02:56:12.565Z,1.53
2019-02-14T02:58:40.704Z,1.55
2019-02-14T03:01:06.501Z,1.58
2019-02-14T03:03:36.156Z,1.53
2019-02-14T03:06:10.197Z,1.57
2019-02-14T03:08:29.961Z,1.60
2019-02-14T03:10:55.859Z,1.63
2019-02-14T03:13:21.949Z,1.70
2019-02-14T03:15:48.013Z,1.65
2019-02-14T03:18:14.103Z,1.65
2019-02-14T03:20:43.228Z,1.64
2019-02-14T03:23:09.093Z,1.62
2019-02-14T03:25:38.246Z,1.64
2019-02-14T03:28:04.058Z,1.67
2019-02-14T03:30:33.003Z,1.62
2019-02-14T03:32:58.813Z,1.69
2019-02-14T03:35:27.395Z,1.70
2019-02-14T03:37:53.237Z,1.71
2019-02-14T03:40:22.066Z,1.69
2019-02-14T03:42:48.166Z,1.69
2019-02-14T03:45:18.313Z,1.63
2019-02-14T03:47:44.113Z,1.60
2019-02-14T03:50:11.130Z,1.45
2019-02-14T03:52:37.076Z,1.46
2019-02-14T03:55:04.714Z,1.49
2019-02-14T03:57:30.543Z,1.49
2019-02-14T03:59:56.362Z,1.39
2019-02-14T04:02:22.194Z,1.41
2019-02-14T04:04:48.017Z,1.32
2019-02-14T04:07:17.577Z,1.36
2019-02-14T04:09:43.731Z,1.35
2019-02-14T04:12:11.718Z,1.33
2019-02-14T04:14:44.756Z,1.32
2019-02-14T04:17:10.762Z,1.32
2019-02-14T04:19:36.869Z,1.47
2019-02-14T04:22:02.995Z,1.43
2019-02-14T04:24:37.181Z,1.28
2019-02-14T04:27:03.414Z,1.25
2019-02-14T04:29:29.464Z,1.19
2019-02-14T04:31:55.328Z,1.21
2019-02-14T04:34:21.542Z,1.19
2019-02-14T04:36:47.381Z,1.20
2019-02-14T04:39:13.452Z,1.12
2019-02-14T04:41:39.548Z,1.12
2019-02-14T04:44:05.642Z,1.11
2019-02-14T04:46:31.669Z,1.07
2019-02-14T04:48:57.502Z,1.00
2019-02-14T04:51:25.274Z,1.05
2019-02-14T04:53:54.262Z,1.03
2019-02-14T04:56:20.846Z,1.02
2019-02-14T04:58:46.676Z,1.04
2019-02-14T05:01:12.581Z,1.10
2019-02-14T05:03:38.386Z,1.02
2019-02-14T05:06:04.186Z,0.93
2019-02-14T05:08:30.007Z,0.88
2019-02-14T05:10:58.562Z,0.93
2019-02-14T05:13:24.399Z,0.83
2019-02-14T05:15:52.839Z,0.79
2019-02-14T05:18:18.706Z,0.80
2019-02-14T05:20:47.514Z,0.77
2019-02-14T05:23:13.342Z,0.78
2019-02-14T05:25:42.409Z,0.78
2019-02-14T05:28:08.269Z,0.77
2019-02-14T05:30:37.386Z,0.71
2019-02-14T05:33:03.174Z,0.67
2019-02-14T05:35:29.012Z,0.70
2019-02-14T05:37:54.805Z,0.64
2019-02-14T05:40:21.013Z,0.52
2019-02-14T05:42:49.701Z,0.56
2019-02-14T05:45:15.629Z,0.56
2019-02-14T05:47:43.630Z,0.60
2019-02-14T05:50:11.022Z,0.61
2019-02-14T05:52:39.590Z,0.56
2019-02-14T05:55:10.172Z,0.56
2019-02-14T05:57:36.379Z,0.52
2019-02-14T06:00:05.339Z,0.57
2019-02-14T06:02:32.227Z,0.58
2019-02-14T06:04:58.633Z,0.44
2019-02-14T06:07:24.547Z,0.44
2019-02-14T06:09:50.343Z,0.39
2019-02-14T06:12:16.127Z,0.40
2019-02-14T06:14:42.038Z,0.40
2019-02-14T06:17:07.857Z,0.40
2019-02-14T06:19:36.476Z,0.37
2019-02-14T06:22:02.342Z,0.29
2019-02-14T06:24:31.054Z,0.34
2019-02-14T06:26:56.960Z,0.34
2019-02-14T06:29:26.067Z,0.25
2019-02-14T06:31:51.871Z,0.19
2019-02-14T06:34:20.683Z,0.19
2019-02-14T06:36:46.506Z,0.27
2019-02-14T06:39:15.359Z,0.08
2019-02-14T06:41:41.252Z,0.03
2019-02-14T06:44:10.238Z,0.05
2019-02-14T06:46:36.304Z,0.20
2019-02-14T06:49:02.396Z,0.21
2019-02-14T06:51:28.454Z,0.24
2019-02-14T06:53:54.276Z,0.20
2019-02-14T06:56:20.118Z,0.20
2019-02-14T06:58:45.931Z,0.14
2019-02-14T07:01:15.074Z,0.18
2019-02-14T07:03:40.871Z,0.24
2019-02-14T07:06:09.834Z,0.31
2019-02-14T07:08:35.662Z,0.43
2019-02-14T07:11:04.507Z,0.64
2019-02-14T07:13:30.327Z,0.83
2019-02-14T07:15:58.442Z,0.83
2019-02-14T07:18:24.261Z,1.17
2019-02-14T07:20:56.054Z,1.17
2019-02-14T07:23:28.845Z,1.30
2019-02-14T07:25:54.705Z,1.94
2019-02-14T07:28:20.492Z,1.94
2019-02-14T07:30:46.291Z,2.71
2019-02-14T07:33:12.137Z,3.68
2019-02-14T07:35:37.958Z,4.21
2019-02-14T07:38:07.222Z,4.60
2019-02-14T07:40:33.037Z,4.72
2019-02-14T07:43:20.950Z,4.89
2019-02-14T07:45:46.762Z,5.65
2019-02-14T07:48:12.579Z,6.72
2019-02-14T07:50:38.388Z,7.58
2019-02-14T07:53:04.205Z,8.22
2019-02-14T07:55:30.315Z,8.58
2019-02-14T07:57:56.755Z,8.32
2019-02-14T08:00:22.646Z,7.99
2019-02-14T08:02:48.434Z,8.72
2019-02-14T08:05:14.565Z,8.65
2019-02-14T08:07:40.385Z,8.77
2019-02-14T08:10:14.232Z,8.89
2019-02-14T08:12:40.445Z,9.32
2019-02-14T08:15:11.858Z,8.75
2019-02-14T08:17:37.660Z,8.98
2019-02-14T08:20:10.547Z,9.36
2019-02-14T08:22:39.931Z,9.65
2019-02-14T08:25:08.051Z,10.84
2019-02-14T08:27:33.899Z,11.56
2019-02-14T08:29:59.710Z,10.69
2019-02-14T08:32:25.545Z,9.93
2019-02-14T08:34:51.379Z,9.28
2019-02-14T08:37:17.167Z,8.97
2019-02-14T08:39:42.994Z,8.81
2019-02-14T08:42:08.824Z,8.15
2019-02-14T08:44:34.646Z,7.83
2019-02-14T08:47:00.449Z,7.42
2019-02-14T08:49:26.250Z,8.04
2019-02-14T08:51:52.360Z,8.67
2019-02-14T08:54:18.135Z,9.33
2019-02-14T08:56:44.239Z,10.31
2019-02-14T08:59:10.054Z,12.19
2019-02-14T09:01:35.871Z,13.69
2019-02-14T09:04:01.667Z,14.58
2019-02-14T09:06:27.533Z,14.72
2019-02-14T09:08:53.614Z,14.09
2019-02-14T09:11:19.396Z,13.05
2019-02-14T09:13:45.475Z,12.23
2019-02-14T09:16:11.306Z,11.10
2019-02-14T09:18:37.468Z,10.51
2019-02-14T09:21:03.291Z,10.96
2019-02-14T09:23:29.093Z,11.12
2019-02-14T09:25:55.183Z,11.92
2019-02-14T09:28:20.999Z,13.04
2019-02-14T09:30:46.838Z,14.08
2019-02-14T09:33:12.937Z,14.75
2019-02-14T09:35:38.742Z,16.10
2019-02-14T09:38:24.502Z,16.98
2019-02-14T09:40:50.335Z,18.10
2019-02-14T09:43:16.128Z,18.12
2019-02-14T09:45:41.924Z,17.92
2019-02-14T09:48:07.718Z,17.59
2019-02-14T09:50:33.510Z,18.16
2019-02-14T09:52:59.591Z,18.74
2019-02-14T09:55:25.417Z,18.16
2019-02-14T09:57:51.238Z,18.16
2019-02-14T10:00:18.044Z,18.80
2019-02-14T10:02:44.152Z,19.35
2019-02-14T10:05:10.034Z,18.65
2019-02-14T10:07:35.962Z,18.65
2019-02-14T10:10:03.722Z,19.53
2019-02-14T10:12:29.536Z,19.50
2019-02-14T10:14:55.596Z,19.50
2019-02-14T10:17:22.408Z,19.70
2019-02-14T10:19:48.390Z,19.70
2019-02-14T10:22:14.266Z,19.67
2019-02-14T10:24:40.295Z,20.29
2019-02-14T10:27:06.101Z,21.08
2019-02-14T10:29:31.924Z,20.96
2019-02-14T10:31:57.731Z,21.09
2019-02-14T10:34:23.517Z,21.64
2019-02-14T10:36:52.104Z,21.48
2019-02-14T10:39:17.887Z,21.34
2019-02-14T10:41:48.794Z,21.70
2019-02-14T10:44:14.645Z,20.83
2019-02-14T10:46:43.705Z,20.46
2019-02-14T10:49:09.504Z,21.13
2019-02-14T10:51:38.399Z,21.22
2019-02-14T10:54:04.470Z,20.54
2019-02-14T10:56:33.370Z,20.54
2019-02-14T10:58:59.291Z,18.47
2019-02-14T11:01:25.212Z,18.47
2019-02-14T11:03:51.435Z,17.65
2019-02-14T11:06:17.273Z,17.52
2019-02-14T11:08:43.329Z,18.02
2019-02-14T11:11:09.261Z,19.05
2019-02-14T11:13:38.083Z,20.07
2019-02-14T11:16:04.296Z,20.82
2019-02-14T11:18:32.924Z,20.79
2019-02-14T11:20:58.760Z,21.01
2019-02-14T11:23:27.505Z,20.31
2019-02-14T11:25:53.351Z,21.02
2019-02-14T11:28:22.311Z,21.30
2019-02-14T11:30:48.140Z,21.26
2019-02-14T11:33:16.699Z,21.29
2019-02-14T11:35:42.525Z,21.08
2019-02-14T11:38:10.856Z,21.07
2019-02-14T11:40:36.957Z,20.96
2019-02-14T11:43:02.764Z,20.66
2019-02-14T11:45:28.597Z,21.52
2019-02-14T11:47:54.411Z,21.31
2019-02-14T11:50:22.475Z,21.26
2019-02-14T11:52:48.311Z,21.36
2019-02-14T11:55:16.969Z,20.98
2019-02-14T11:57:42.800Z,20.50
2019-02-14T12:00:26.520Z,20.24
2019-02-14T12:02:55.696Z,19.75
2019-02-14T12:05:20.197Z,20.20
2019-02-14T12:07:46.344Z,20.20
2019-02-14T12:10:13.897Z,20.74
2019-02-14T12:12:40.086Z,21.15
2019-02-14T12:15:08.300Z,21.46
2019-02-14T12:17:34.123Z,21.78
2019-02-14T12:22:25.836Z,21.31
2019-02-14T12:24:51.651Z,21.51
2019-02-14T12:27:17.461Z,21.12
2019-02-14T12:29:43.552Z,19.70
2019-02-14T12:32:09.372Z,18.81
2019-02-14T12:34:35.443Z,18.37
2019-02-14T12:37:01.242Z,17.93
2019-02-14T12:39:27.341Z,18.13
2019-02-14T12:41:53.133Z,17.61
2019-02-14T12:44:19.192Z,17.74
2019-02-14T12:46:47.860Z,17.78
2019-02-14T12:49:13.675Z,18.46
2019-02-14T12:51:42.688Z,19.12
2019-02-14T12:54:11.342Z,19.49
2019-02-14T12:56:37.207Z,19.42
2019-02-14T12:59:03.047Z,19.06
2019-02-14T13:01:28.873Z,19.09
2019-02-14T13:03:54.671Z,19.28
2019-02-14T13:06:20.747Z,19.29
2019-02-14T13:08:49.645Z,19.14
2019-02-14T13:11:15.441Z,19.36
2019-02-14T13:13:49.819Z,19.38
2019-02-14T13:16:12.280Z,19.03
2019-02-14T13:18:38.086Z,19.62
2019-02-14T13:21:05.768Z,19.62
2019-02-14T13:23:31.768Z,19.90
2019-02-14T13:25:57.599Z,19.90
2019-02-14T13:28:26.514Z,19.88
2019-02-14T13:30:52.653Z,19.43
2019-02-14T13:33:18.444Z,18.98
2019-02-14T13:35:44.268Z,18.67
2019-02-14T13:38:10.052Z,18.52
2019-02-14T13:40:38.211Z,18.26
2019-02-14T13:43:26.130Z,18.14
2019-02-14T13:45:52.028Z,18.00
2019-02-14T13:48:17.822Z,18.47
2019-02-14T13:50:43.608Z,19.22
2019-02-14T13:53:09.426Z,19.84
2019-02-14T13:55:35.341Z,20.26
2019-02-14T13:58:01.401Z,20.31
2019-02-14T14:00:28.500Z,19.89
2019-02-14T14:02:54.310Z,19.74
2019-02-14T14:05:20.155Z,20.11
2019-02-14T14:07:45.982Z,19.94
2019-02-14T14:10:11.872Z,19.68
2019-02-14T14:12:53.184Z,19.80
2019-02-14T14:15:19.637Z,20.20
2019-02-14T14:17:45.687Z,20.57
2019-02-14T14:20:11.630Z,20.30
2019-02-14T14:22:37.593Z,19.82
2019-02-14T14:25:05.094Z,19.50
2019-02-14T14:27:31.303Z,19.21
2019-02-14T14:29:58.804Z,19.03
2019-02-14T14:32:24.785Z,18.97
2019-02-14T14:34:50.868Z,18.96
2019-02-14T14:37:19.713Z,18.75
2019-02-14T14:39:47.866Z,18.24
2019-02-14T14:42:27.775Z,17.94
2019-02-14T14:44:53.626Z,17.94
2019-02-14T14:47:19.422Z,18.26
2019-02-14T14:49:45.478Z,18.73
2019-02-14T14:52:11.279Z,19.04
2019-02-14T14:54:37.115Z,19.12
2019-02-14T14:57:03.190Z,19.03
2019-02-14T14:59:28.996Z,19.05
2019-02-14T15:01:54.843Z,19.03
2019-02-14T15:04:20.899Z,19.19
2019-02-14T15:06:47.119Z,19.13
2019-02-14T15:09:12.917Z,18.81
2019-02-14T15:11:38.736Z,18.78
2019-02-14T15:14:04.520Z,18.99
2019-02-14T15:16:30.355Z,19.21
2019-02-14T15:18:56.447Z,19.38
2019-02-14T15:21:22.604Z,19.45
2019-02-14T15:23:48.425Z,19.28
2019-02-14T15:26:14.279Z,19.24
2019-02-14T15:28:40.082Z,19.43
2019-02-14T15:33:42.642Z,19.80
2019-02-14T15:36:08.485Z,19.60
2019-02-14T15:38:35.045Z,19.52
2019-02-14T15:41:01.986Z,19.62
2019-02-14T15:43:27.799Z,19.60
2019-02-14T15:45:53.621Z,19.23
2019-02-14T15:48:19.541Z,18.68
2019-02-14T15:50:45.386Z,18.20
2019-02-14T15:53:11.189Z,17.67
2019-02-14T15:55:39.082Z,17.62
2019-02-14T15:58:07.290Z,17.51
2019-02-14T16:00:35.147Z,17.21
2019-02-14T16:03:06.973Z,16.29
2019-02-14T16:05:32.772Z,16.29
2019-02-14T16:08:00.500Z,15.92
2019-02-14T16:10:27.749Z,15.48
2019-02-14T16:12:54.363Z,15.15
2019-02-14T16:15:20.432Z,14.82
2019-02-14T16:17:46.524Z,14.64
2019-02-14T16:20:12.650Z,14.39
2019-02-14T16:22:40.214Z,14.20
2019-02-14T16:25:06.976Z,14.79
2019-02-14T16:27:32.937Z,14.76
2019-02-14T16:29:58.753Z,14.84
2019-02-14T16:32:24.564Z,14.69
2019-02-14T16:34:50.381Z,14.52
2019-02-14T16:37:16.474Z,14.26
2019-02-14T16:39:51.315Z,13.77
2019-02-14T16:42:10.022Z,13.36
2019-02-14T16:44:36.120Z,12.97
2019-02-14T16:47:01.954Z,12.63
2019-02-14T16:49:27.754Z,12.32
2019-02-14T16:51:53.596Z,12.12
2019-02-14T16:54:19.671Z,11.84
2019-02-14T16:56:45.766Z,11.64
2019-02-14T16:59:11.585Z,11.40
2019-02-14T17:01:37.423Z,11.19
2019-02-14T17:04:06.032Z,11.07
2019-02-14T17:06:32.125Z,10.91
2019-02-14T17:09:01.235Z,10.69
2019-02-14T17:11:27.058Z,10.53
2019-02-14T17:13:52.852Z,10.48
2019-02-14T17:16:18.690Z,10.38
2019-02-14T17:18:44.539Z,10.30
2019-02-14T17:21:10.330Z,10.19
2019-02-14T17:23:36.291Z,9.65
2019-02-14T17:26:04.987Z,9.95
2019-02-14T17:28:31.111Z,9.80
2019-02-14T17:31:00.219Z,9.81
2019-02-14T17:33:26.458Z,9.70
2019-02-14T17:35:55.674Z,9.54
2019-02-14T17:38:21.546Z,9.41
2019-02-14T17:40:50.124Z,9.32
2019-02-14T17:43:16.212Z,9.22
2019-02-14T17:45:45.028Z,9.22
2019-02-14T17:48:11.159Z,9.15
2019-02-14T17:50:37.228Z,8.98
2019-02-14T17:53:03.320Z,8.94
2019-02-14T17:55:29.394Z,8.88
2019-02-14T17:57:58.025Z,8.85
2019-02-14T18:00:23.863Z,8.73
2019-02-14T18:02:52.783Z,8.63
2019-02-14T18:05:18.618Z,8.53
2019-02-14T18:07:47.403Z,8.51
2019-02-14T18:10:13.326Z,8.47
2019-02-14T18:12:42.163Z,8.46
2019-02-14T18:15:10.571Z,8.36
2019-02-14T18:17:36.399Z,8.28
2019-02-14T18:20:03.032Z,8.17
2019-02-14T18:22:33.089Z,8.07
2019-02-14T18:24:59.314Z,7.93
2019-02-14T18:27:25.445Z,7.87
2019-02-14T18:29:51.276Z,7.79
2019-02-14T18:32:17.082Z,7.82
2019-02-14T18:34:43.206Z,7.68
2019-02-14T18:37:09.229Z,7.61
2019-02-14T18:39:38.089Z,7.59
2019-02-14T18:42:04.197Z,7.42
2019-02-14T18:44:32.858Z,7.36
2019-02-14T18:46:58.952Z,7.35
2019-02-14T18:49:28.116Z,7.29
2019-02-14T18:51:53.918Z,7.22
2019-02-14T18:54:20.077Z,7.18
2019-02-14T18:56:45.871Z,7.17
2019-02-14T18:59:15.251Z,7.17
2019-02-14T19:01:41.295Z,7.13
2019-02-14T19:04:07.124Z,7.08
2019-02-14T19:06:32.922Z,6.98
2019-02-14T19:08:58.743Z,6.79
2019-02-14T19:11:27.560Z,6.77
2019-02-14T19:13:53.380Z,6.72
2019-02-14T19:16:22.398Z,6.69
2019-02-14T19:18:48.186Z,6.53
2019-02-14T19:21:16.805Z,6.51
2019-02-14T19:23:42.615Z,6.47
2019-02-14T19:26:11.585Z,6.39
2019-02-14T19:28:37.426Z,6.35
2019-02-14T19:31:06.377Z,6.32
2019-02-14T19:33:32.528Z,6.35
2019-02-14T19:36:00.110Z,6.33
2019-02-14T19:38:26.198Z,6.27
2019-02-14T19:40:51.999Z,6.16
2019-02-14T19:43:17.833Z,6.16
2019-02-14T19:45:43.664Z,5.99
2019-02-14T19:48:12.602Z,6.04
2019-02-14T19:50:38.719Z,6.05
2019-02-14T19:53:07.441Z,5.94
2019-02-14T19:55:33.550Z,5.84
2019-02-14T19:58:02.210Z,5.72
2019-02-14T20:00:27.995Z,5.65
2019-02-14T20:02:56.756Z,5.63
2019-02-14T20:05:22.577Z,5.53
2019-02-14T20:07:51.494Z,5.62
2019-02-14T20:10:17.528Z,5.58
2019-02-14T20:12:46.555Z,5.48
2019-02-14T20:15:18.862Z,5.30
2019-02-14T20:17:44.689Z,5.13
2019-02-14T20:20:10.547Z,5.13
2019-02-14T20:22:36.720Z,5.13
2019-02-14T20:25:06.597Z,5.18
2019-02-14T20:27:32.753Z,5.17
2019-02-14T20:29:58.601Z,5.19
2019-02-14T20:32:24.389Z,5.14
2019-02-14T20:34:50.185Z,5.10
2019-02-14T20:37:16.262Z,5.04
2019-02-14T20:39:42.055Z,4.99
2019-02-14T20:42:08.146Z,4.63
2019-02-14T20:44:36.951Z,4.50
2019-02-14T20:47:03.059Z,4.58
2019-02-14T20:49:32.209Z,4.63
2019-02-14T20:51:58.280Z,4.62
2019-02-14T20:54:24.102Z,4.71
2019-02-14T20:56:51.608Z,4.61
2019-02-14T20:59:17.417Z,3.97
2019-02-14T21:01:43.385Z,4.36
2019-02-14T21:04:09.204Z,4.58
2019-02-14T21:06:38.040Z,4.55
2019-02-14T21:09:04.452Z,4.43
2019-02-14T21:11:33.352Z,4.44
2019-02-14T21:13:59.154Z,4.39
2019-02-14T21:16:27.725Z,4.35
2019-02-14T21:18:53.558Z,4.33
2019-02-14T21:21:22.560Z,4.40
2019-02-14T21:23:48.396Z,4.36
2019-02-14T21:26:17.230Z,3.92
2019-02-14T21:28:43.085Z,4.22
2019-02-14T21:31:08.917Z,4.26
2019-02-14T21:33:34.725Z,4.29
2019-02-14T21:36:00.545Z,4.34
2019-02-14T21:38:29.262Z,4.20
2019-02-14T21:40:55.170Z,4.22
2019-02-14T21:43:24.224Z,4.14
2019-02-14T21:45:50.042Z,4.12
2019-02-14T21:48:18.725Z,4.22
2019-02-14T21:50:44.483Z,4.22
2019-02-14T21:53:13.087Z,4.17
2019-02-14T21:55:38.893Z,4.07
2019-02-14T21:58:07.565Z,3.93
2019-02-14T22:00:33.446Z,3.63
2019-02-14T22:03:03.108Z,3.48
2019-02-14T22:05:28.991Z,3.55
2019-02-14T22:07:57.814Z,3.48
2019-02-14T22:10:23.657Z,3.44
2019-02-14T22:12:49.473Z,3.41
2019-02-14T22:15:21.302Z,3.50
2019-02-14T22:17:47.204Z,3.56
2019-02-14T22:20:12.971Z,3.49
2019-02-14T22:22:39.141Z,3.51
2019-02-14T22:25:07.459Z,3.40
2019-02-14T22:27:33.267Z,3.43
2019-02-14T22:29:59.364Z,3.44
2019-02-14T22:32:25.189Z,3.35
2019-02-14T22:34:54.012Z,3.24
2019-02-14T22:37:19.801Z,3.27
2019-02-14T22:39:48.372Z,3.22
2019-02-14T22:42:14.200Z,3.21
2019-02-14T22:44:40.005Z,3.27
2019-02-14T22:47:06.148Z,3.27
2019-02-14T22:49:31.982Z,3.24
2019-02-14T22:52:04.223Z,3.21
2019-02-14T22:54:30.074Z,3.23
2019-02-14T22:56:59.531Z,3.34
2019-02-14T22:59:25.602Z,3.37
2019-02-14T23:01:51.431Z,3.46
2019-02-14T23:04:17.209Z,3.52
2019-02-14T23:06:43.042Z,3.65
2019-02-14T23:09:09.103Z,3.67
2019-02-14T23:11:37.978Z,3.68
2019-02-14T23:14:03.847Z,3.79
2019-02-14T23:16:31.888Z,3.84
2019-02-14T23:18:58.034Z,3.85
2019-02-14T23:21:23.840Z,3.70
2019-02-14T23:23:49.978Z,3.68
2019-02-14T23:26:15.766Z,3.51
2019-02-14T23:28:43.766Z,3.37
2019-02-14T23:31:09.690Z,3.21
2019-02-14T23:33:38.799Z,3.15
2019-02-14T23:36:05.083Z,3.16
2019-02-14T23:38:33.120Z,3.00
2019-02-14T23:40:58.960Z,2.95
2019-02-14T23:43:27.709Z,2.74
2019-02-14T23:45:56.977Z,2.90
2019-02-14T23:48:23.096Z,2.96
2019-02-14T23:50:48.907Z,2.91
2019-02-14T23:53:17.780Z,2.71
2019-02-14T23:55:43.862Z,2.75
2019-02-14T23:58:10.113Z,2.88
